Time;durP1;ratioP1;P1;durP2;ratioP2;P2;SDS_P1;SDS_P2;PMS_P1;PMS_P2;Temp;Humidity;BMP_temperature;BMP_pressure;BME280_temperature;BME280_humidity;BME280_pressure;Samples;Min_cycle;Max_cycle;Signal;HPM_P1;HPM_P2
2022/09/18 00:02:01;;;;;;;6.03;0.80;;;12.60;99.90;;;;;;5112381;28;20085;-74
2022/09/18 00:04:27;;;;;;;4.53;0.70;;;12.70;99.90;;;;;;5096161;28;20047;-74
2022/09/18 00:06:53;;;;;;;7.80;0.95;;;12.60;99.90;;;;;;5095185;28;20038;-74
2022/09/18 00:09:19;;;;;;;3.92;0.65;;;12.60;99.90;;;;;;5095366;28;20040;-75
2022/09/18 00:11:47;;;;;;;7.95;0.85;;;12.60;99.90;;;;;;5094732;28;20036;-74
2022/09/18 00:14:21;;;;;;;6.72;1.05;;;12.70;99.90;;;;;;5095285;28;20854;-75
2022/09/18 00:16:48;;;;;;;5.05;1.10;;;12.60;99.90;;;;;;5096734;28;20035;-74
2022/09/18 00:19:15;;;;;;;7.25;1.30;;;12.60;99.90;;;;;;5096526;28;20044;-74
2022/09/18 00:21:43;;;;;;;12.07;2.70;;;12.50;99.90;;;;;;5095531;28;20425;-74
2022/09/18 00:24:10;;;;;;;19.17;5.75;;;12.70;99.90;;;;;;5096365;28;20056;-74
2022/09/18 00:26:36;;;;;;;11.93;2.60;;;12.60;99.90;;;;;;5095263;28;20036;-74
2022/09/18 00:29:03;;;;;;;10.65;1.65;;;12.60;99.90;;;;;;5112056;28;20122;-74
2022/09/18 00:31:32;;;;;;;7.97;1.45;;;12.50;99.90;;;;;;5096549;28;20066;-74
2022/09/18 00:34:01;;;;;;;10.85;1.20;;;12.40;99.90;;;;;;5095584;28;20364;-74
2022/09/18 00:36:29;;;;;;;32.15;6.50;;;12.30;99.90;;;;;;5095251;28;20036;-74
2022/09/18 00:38:56;;;;;;;12.00;2.13;;;12.30;99.90;;;;;;5096199;28;20040;-75
2022/09/18 00:41:41;;;;;;;8.57;2.40;;;12.50;99.90;;;;;;5095686;28;20079;-75
2022/09/18 00:44:29;;;;;;;6.85;1.77;;;12.60;99.90;;;;;;5096068;28;20429;-74
2022/09/18 00:47:01;;;;;;;6.25;1.50;;;12.60;99.90;;;;;;5095054;28;20076;-74
2022/09/18 00:49:30;;;;;;;8.45;3.00;;;12.70;99.90;;;;;;5095023;28;20114;-75
2022/09/18 00:51:59;;;;;;;13.40;4.57;;;12.60;99.90;;;;;;5078112;28;20039;-74
2022/09/18 00:54:33;;;;;;;10.60;3.00;;;12.70;99.90;;;;;;5096256;28;20036;-74
2022/09/18 00:57:09;;;;;;;18.58;7.38;;;12.70;99.90;;;;;;5096139;28;20032;-74
2022/09/18 00:59:36;;;;;;;16.08;4.50;;;12.80;99.90;;;;;;5095244;28;20079;-74
2022/09/18 01:02:03;;;;;;;9.30;3.13;;;12.70;99.90;;;;;;5095124;28;20044;-74
2022/09/18 01:04:29;;;;;;;10.93;1.67;;;12.80;99.90;;;;;;5095262;28;20411;-74
2022/09/18 01:07:19;;;;;;;11.38;1.30;;;12.60;99.90;;;;;;5094974;28;20100;-74
2022/09/18 01:10:05;;;;;;;14.15;1.13;;;12.60;99.90;;;;;;5095712;28;20044;-74
2022/09/18 01:12:43;;;;;;;12.90;1.00;;;12.60;99.90;;;;;;5094436;28;20093;-75
2022/09/18 01:15:38;;;;;;;15.98;1.00;;;12.70;99.90;;;;;;5095197;28;20050;-74
2022/09/18 01:18:15;;;;;;;14.45;1.70;;;12.70;99.90;;;;;;5098360;28;20085;-74
2022/09/18 01:20:41;;;;;;;9.18;1.90;;;12.80;99.90;;;;;;5098540;28;20330;-74
2022/09/18 01:23:53;;;;;;;9.70;2.28;;;12.80;99.90;;;;;;5098341;28;20044;-75
2022/09/18 01:26:28;;;;;;;11.27;1.20;;;12.90;99.90;;;;;;5098542;28;20048;-74
2022/09/18 01:29:07;;;;;;;7.88;0.90;;;12.80;99.90;;;;;;5098283;28;20044;-74
2022/09/18 01:32:00;;;;;;;6.30;1.00;;;12.80;99.90;;;;;;5098454;28;20109;-74
2022/09/18 01:34:59;;;;;;;6.85;0.73;;;12.60;99.90;;;;;;5132197;27;20333;-74
2022/09/18 01:37:35;;;;;;;10.40;1.17;;;12.60;99.90;;;;;;5115620;28;20036;-75
2022/09/18 01:40:21;;;;;;;5.88;0.82;;;12.50;99.90;;;;;;5081067;28;20044;-74
2022/09/18 01:42:49;;;;;;;4.05;0.63;;;12.50;99.90;;;;;;5087547;28;20052;-74
2022/09/18 01:45:26;;;;;;;7.43;0.88;;;12.50;99.90;;;;;;5098892;28;20494;-74
2022/09/18 01:48:02;;;;;;;7.93;0.80;;;12.50;99.90;;;;;;5099053;28;20104;-74
2022/09/18 01:50:36;;;;;;;6.10;0.90;;;12.50;99.90;;;;;;5098036;28;20446;-74
2022/09/18 01:53:09;;;;;;;7.95;0.80;;;12.40;99.90;;;;;;5098844;28;20417;-74
2022/09/18 01:55:37;;;;;;;4.50;0.60;;;12.40;99.90;;;;;;5098887;28;20115;-74
2022/09/18 01:58:12;;;;;;;7.03;0.82;;;12.50;99.90;;;;;;5131365;27;20425;-74
2022/09/18 02:00:45;;;;;;;7.93;0.63;;;12.50;99.90;;;;;;5097726;28;20119;-75
2022/09/18 02:03:40;;;;;;;7.50;0.90;;;12.50;99.90;;;;;;5114583;28;20044;-74
2022/09/18 02:06:30;;;;;;;7.13;0.90;;;12.40;99.90;;;;;;5098618;28;20044;-74
2022/09/18 02:08:58;;;;;;;5.07;0.70;;;12.50;99.90;;;;;;5098567;28;20032;-74
2022/09/18 02:11:24;;;;;;;5.57;0.73;;;12.50;99.90;;;;;;5097258;28;20109;-75
2022/09/18 02:14:05;;;;;;;7.20;0.60;;;12.50;99.90;;;;;;5098501;28;20158;-75
2022/09/18 02:16:49;;;;;;;7.65;0.80;;;12.60;99.90;;;;;;5098643;28;20040;-74
2022/09/18 02:19:27;;;;;;;6.40;0.90;;;12.60;99.90;;;;;;5097217;28;20100;-74
2022/09/18 02:21:56;;;;;;;3.95;0.70;;;12.60;99.90;;;;;;5097434;28;20448;-74
2022/09/18 02:24:27;;;;;;;8.27;0.98;;;12.60;99.90;;;;;;5097555;28;20309;-75
2022/09/18 02:26:55;;;;;;;4.63;0.73;;;12.70;99.90;;;;;;5131324;27;20052;-74
2022/09/18 02:29:23;;;;;;;5.88;0.95;;;12.70;99.90;;;;;;5096613;28;20047;-74
2022/09/18 02:31:49;;;;;;;3.22;0.50;;;12.70;99.90;;;;;;5098075;28;20504;-74
2022/09/18 02:34:15;;;;;;;4.55;0.40;;;12.60;99.90;;;;;;5096883;28;20177;-75
2022/09/18 02:36:50;;;;;;;4.63;0.63;;;12.60;99.90;;;;;;5131356;27;20089;-75
2022/09/18 02:39:19;;;;;;;7.47;1.10;;;12.70;99.90;;;;;;5080042;28;20044;-75
2022/09/18 02:41:59;;;;;;;10.52;0.90;;;12.60;99.90;;;;;;5096426;28;20047;-75
2022/09/18 02:44:59;;;;;;;6.60;1.00;;;12.60;99.90;;;;;;5097013;28;20132;-75
2022/09/18 02:47:33;;;;;;;7.55;0.82;;;12.60;99.90;;;;;;5088591;28;20130;-75
2022/09/18 02:50:07;;;;;;;9.68;1.20;;;12.50;99.90;;;;;;5097762;28;20112;-74
2022/09/18 02:52:40;;;;;;;9.68;0.73;;;12.50;99.90;;;;;;5130681;27;20047;-75
2022/09/18 02:55:24;;;;;;;11.02;1.23;;;12.50;99.90;;;;;;5097635;28;20341;-74
2022/09/18 02:58:05;;;;;;;8.23;0.90;;;12.60;99.90;;;;;;5079686;28;20039;-74
2022/09/18 03:00:31;;;;;;;8.32;1.00;;;12.70;99.90;;;;;;5097586;28;20118;-75
2022/09/18 03:02:58;;;;;;;10.25;1.48;;;12.80;99.90;;;;;;5079341;28;20092;-75
2022/09/18 03:05:24;;;;;;;15.50;2.40;;;12.80;99.90;;;;;;5097306;28;20039;-75
2022/09/18 03:07:51;;;;;;;15.05;2.00;;;12.70;99.90;;;;;;5096598;28;20440;-75
2022/09/18 03:10:16;;;;;;;13.75;1.63;;;12.60;99.90;;;;;;5096195;28;20050;-74
2022/09/18 03:12:42;;;;;;;20.90;1.75;;;12.30;99.90;;;;;;5096766;28;20136;-75
2022/09/18 03:15:09;;;;;;;17.88;2.00;;;12.20;99.90;;;;;;5097237;28;20035;-75
2022/09/18 03:17:35;;;;;;;12.05;1.92;;;12.20;99.90;;;;;;5112206;28;20048;-74
2022/09/18 03:20:02;;;;;;;14.93;2.05;;;12.30;99.90;;;;;;5096038;28;20105;-75
2022/09/18 03:22:28;;;;;;;17.73;1.88;;;12.30;99.90;;;;;;5095972;28;20048;-74
2022/09/18 03:24:53;;;;;;;11.45;1.30;;;12.40;99.90;;;;;;5097003;28;20043;-74
2022/09/18 03:27:19;;;;;;;18.45;1.80;;;12.40;99.90;;;;;;5096025;28;20048;-74
2022/09/18 03:29:45;;;;;;;12.75;1.48;;;12.30;99.90;;;;;;5097167;28;20039;-74
2022/09/18 03:32:11;;;;;;;13.77;1.30;;;12.20;99.90;;;;;;5112789;28;20115;-74
2022/09/18 03:34:37;;;;;;;12.98;1.30;;;12.10;99.90;;;;;;5130331;27;20113;-74
2022/09/18 03:37:03;;;;;;;9.55;1.10;;;12.00;99.90;;;;;;5095862;28;20096;-74
2022/09/18 03:39:29;;;;;;;22.15;1.75;;;12.00;99.90;;;;;;5096495;28;20040;-74
2022/09/18 03:41:54;;;;;;;14.45;1.40;;;12.10;99.90;;;;;;5096059;28;20177;-74
2022/09/18 03:44:20;;;;;;;15.77;1.70;;;12.10;99.90;;;;;;5129721;27;20044;-74
2022/09/18 03:46:46;;;;;;;11.00;1.40;;;12.20;99.90;;;;;;5112856;28;20036;-74
2022/09/18 03:49:11;;;;;;;10.75;0.93;;;12.20;99.90;;;;;;5096758;28;20369;-74
2022/09/18 03:51:37;;;;;;;14.73;1.50;;;12.10;99.90;;;;;;5097002;28;20036;-74
2022/09/18 03:54:03;;;;;;;9.95;1.20;;;12.10;99.90;;;;;;5096725;28;20032;-74
2022/09/18 03:56:29;;;;;;;10.65;1.10;;;12.00;99.90;;;;;;5095723;28;20040;-73
2022/09/18 03:58:55;;;;;;;12.68;1.20;;;12.10;99.90;;;;;;5112671;28;20071;-74
2022/09/18 04:01:20;;;;;;;8.30;1.00;;;12.20;99.90;;;;;;5129647;27;20039;-75
2022/09/18 04:03:46;;;;;;;7.90;1.20;;;12.40;99.90;;;;;;5112437;28;20051;-74
2022/09/18 04:06:11;;;;;;;8.63;0.80;;;12.50;99.90;;;;;;5096472;28;20044;-74
2022/09/18 04:08:37;;;;;;;9.98;1.17;;;12.50;99.90;;;;;;5096612;28;20036;-74
2022/09/18 04:11:04;;;;;;;9.02;1.02;;;12.50;99.90;;;;;;5095136;28;20094;-74
2022/09/18 04:13:31;;;;;;;14.10;2.28;;;12.50;99.90;;;;;;5096750;28;20039;-74
2022/09/18 04:15:57;;;;;;;11.40;1.17;;;12.60;99.90;;;;;;5096540;28;20032;-74
2022/09/18 04:18:23;;;;;;;10.55;1.08;;;12.40;99.90;;;;;;5096715;28;20032;-74
2022/09/18 04:20:49;;;;;;;12.25;0.98;;;12.40;99.90;;;;;;5095249;28;20103;-74
2022/09/18 04:23:15;;;;;;;10.77;1.00;;;12.40;99.90;;;;;;5096373;28;20106;-74
2022/09/18 04:25:41;;;;;;;12.18;1.13;;;12.40;99.90;;;;;;5129712;28;20459;-74
2022/09/18 04:28:07;;;;;;;10.60;1.20;;;12.40;99.90;;;;;;5112546;28;20329;-74
2022/09/18 04:30:33;;;;;;;10.15;0.73;;;12.40;99.90;;;;;;5095221;28;20375;-74
2022/09/18 04:32:59;;;;;;;9.32;1.05;;;12.20;99.90;;;;;;5096096;28;20111;-74
2022/09/18 04:35:24;;;;;;;11.48;1.08;;;12.30;99.90;;;;;;5129484;27;20166;-74
2022/09/18 04:37:50;;;;;;;8.80;1.13;;;12.50;99.90;;;;;;5096244;28;20306;-74
2022/09/18 04:40:16;;;;;;;9.45;0.80;;;12.40;99.90;;;;;;5112458;28;20059;-74
2022/09/18 04:42:41;;;;;;;14.35;2.20;;;12.20;99.90;;;;;;5095415;28;20451;-74
2022/09/18 04:45:07;;;;;;;5.10;0.82;;;12.00;99.90;;;;;;5096389;28;20048;-74
2022/09/18 04:47:33;;;;;;;10.82;0.85;;;11.90;99.90;;;;;;5096357;28;20040;-74
2022/09/18 04:49:59;;;;;;;10.07;1.02;;;11.70;99.90;;;;;;5096306;28;20332;-75
2022/09/18 04:52:25;;;;;;;14.35;1.17;;;11.60;99.90;;;;;;5132203;27;20036;-74
2022/09/18 04:54:50;;;;;;;14.68;1.08;;;11.70;99.90;;;;;;5133042;27;20089;-74
2022/09/18 04:57:16;;;;;;;11.13;1.10;;;11.80;99.90;;;;;;5100145;28;20040;-74
2022/09/18 04:59:42;;;;;;;7.72;0.73;;;11.80;99.90;;;;;;5132863;27;20110;-74
2022/09/18 05:02:07;;;;;;;12.50;1.02;;;11.80;99.90;;;;;;5099700;28;20046;-74
2022/09/18 05:04:33;;;;;;;8.30;1.13;;;11.90;99.90;;;;;;5132920;27;20044;-74
2022/09/18 05:06:59;;;;;;;14.43;1.20;;;11.90;99.90;;;;;;5099958;28;20040;-74
2022/09/18 05:09:24;;;;;;;12.30;1.02;;;12.00;99.90;;;;;;5099603;28;20048;-74
2022/09/18 05:11:50;;;;;;;7.57;1.05;;;12.10;99.90;;;;;;5099339;28;20119;-74
2022/09/18 05:14:15;;;;;;;7.43;0.95;;;11.80;99.90;;;;;;5132385;27;20064;-75
2022/09/18 05:16:41;;;;;;;12.02;1.15;;;11.90;99.90;;;;;;5132825;27;20089;-74
2022/09/18 05:19:07;;;;;;;10.30;0.98;;;11.80;99.90;;;;;;5099547;28;20035;-74
2022/09/18 05:21:33;;;;;;;11.30;1.10;;;11.90;99.90;;;;;;5099478;28;20077;-74
2022/09/18 05:23:59;;;;;;;8.80;0.88;;;11.90;99.90;;;;;;5099659;28;20036;-74
2022/09/18 05:26:25;;;;;;;9.70;1.08;;;11.80;99.90;;;;;;5132433;27;20480;-74
2022/09/18 05:28:51;;;;;;;10.05;1.00;;;11.80;99.90;;;;;;5098325;28;20444;-74
2022/09/18 05:31:17;;;;;;;9.95;1.35;;;11.80;99.90;;;;;;5131860;27;20039;-74
2022/09/18 05:33:42;;;;;;;9.30;0.82;;;11.90;99.90;;;;;;5132939;27;20044;-74
2022/09/18 05:36:08;;;;;;;12.80;1.45;;;12.00;99.90;;;;;;5098158;28;20036;-74
2022/09/18 05:38:34;;;;;;;10.65;1.55;;;12.10;99.90;;;;;;5099083;28;20047;-74
2022/09/18 05:41:00;;;;;;;6.72;0.80;;;12.20;99.90;;;;;;5098708;28;20040;-74
2022/09/18 05:43:26;;;;;;;10.98;1.15;;;12.10;99.90;;;;;;5080678;28;20063;-74
2022/09/18 05:45:52;;;;;;;6.60;0.63;;;12.00;99.90;;;;;;5097858;28;20101;-74
2022/09/18 05:48:18;;;;;;;9.23;1.42;;;12.00;99.90;;;;;;5097849;28;20048;-74
2022/09/18 05:50:43;;;;;;;13.52;0.88;;;11.80;99.90;;;;;;5132109;27;20040;-74
2022/09/18 05:53:15;;;;;;;8.82;0.73;;;11.90;99.90;;;;;;5098695;28;20035;-74
2022/09/18 05:55:41;;;;;;;9.65;0.82;;;11.80;99.90;;;;;;5099069;28;20046;-73
2022/09/18 05:58:12;;;;;;;9.15;0.63;;;11.80;99.90;;;;;;5080687;28;20039;-74
2022/09/18 06:00:37;;;;;;;6.88;0.80;;;11.80;99.90;;;;;;5097947;28;20118;-75
2022/09/18 06:03:06;;;;;;;5.57;0.90;;;11.80;99.90;;;;;;5131081;27;20036;-74
2022/09/18 06:05:33;;;;;;;12.10;0.85;;;11.80;99.90;;;;;;5097614;28;20110;-74
2022/09/18 06:08:07;;;;;;;6.90;0.88;;;11.80;99.90;;;;;;5080864;28;20040;-74
2022/09/18 06:10:36;;;;;;;8.85;0.80;;;11.80;99.90;;;;;;5098311;28;20083;-74
2022/09/18 06:13:11;;;;;;;6.05;0.50;;;11.90;99.90;;;;;;5097252;28;20040;-72
2022/09/18 06:15:38;;;;;;;7.82;0.88;;;11.90;99.90;;;;;;5098340;28;20055;-72
2022/09/18 06:18:05;;;;;;;7.72;0.75;;;12.10;99.90;;;;;;5098612;28;20040;-72
2022/09/18 06:20:31;;;;;;;11.60;1.10;;;12.20;99.90;;;;;;5097865;28;20066;-73
2022/09/18 06:22:59;;;;;;;11.27;0.73;;;12.40;99.90;;;;;;5098459;28;20429;-73
2022/09/18 06:25:25;;;;;;;12.40;0.85;;;12.50;99.90;;;;;;5098159;28;20040;-73
2022/09/18 06:27:57;;;;;;;6.50;0.70;;;12.60;99.90;;;;;;5080210;28;20048;-73
2022/09/18 06:30:25;;;;;;;9.27;1.00;;;12.50;99.90;;;;;;5098314;28;20036;-73
2022/09/18 06:32:50;;;;;;;10.18;1.20;;;12.50;99.90;;;;;;5097253;28;20040;-73
2022/09/18 06:35:16;;;;;;;8.07;1.00;;;12.60;99.90;;;;;;5097483;28;20479;-73
2022/09/18 06:37:42;;;;;;;12.63;1.30;;;12.60;99.90;;;;;;5097836;28;20066;-73
2022/09/18 06:40:08;;;;;;;15.63;1.45;;;12.60;99.90;;;;;;5096913;28;20040;-73
2022/09/18 06:42:34;;;;;;;12.82;1.17;;;12.60;99.90;;;;;;5097481;28;20113;-73
2022/09/18 06:44:59;;;;;;;6.90;0.80;;;12.70;99.90;;;;;;5096728;28;20337;-73
2022/09/18 06:47:25;;;;;;;11.80;1.23;;;12.70;99.90;;;;;;5097207;28;20051;-73
2022/09/18 06:49:51;;;;;;;9.40;1.70;;;12.60;99.90;;;;;;5097767;28;20044;-73
2022/09/18 06:52:16;;;;;;;15.13;2.45;;;12.50;99.90;;;;;;5097704;28;20032;-73
2022/09/18 06:54:42;;;;;;;9.60;2.80;;;12.50;99.90;;;;;;5097423;28;20349;-73
2022/09/18 06:57:08;;;;;;;11.05;1.58;;;12.50;99.90;;;;;;5097836;28;20040;-74
2022/09/18 06:59:33;;;;;;;8.73;1.50;;;12.60;99.90;;;;;;5096740;28;20048;-73
2022/09/18 07:01:59;;;;;;;11.65;2.40;;;12.60;99.90;;;;;;5097641;28;20375;-73
2022/09/18 07:04:25;;;;;;;17.35;1.92;;;12.60;99.90;;;;;;5097427;28;20044;-74
2022/09/18 07:06:50;;;;;;;8.98;1.27;;;12.60;99.90;;;;;;5097379;28;20075;-73
2022/09/18 07:09:16;;;;;;;5.90;0.60;;;12.70;99.90;;;;;;5097204;28;20036;-75
2022/09/18 07:11:42;;;;;;;7.40;0.77;;;12.60;99.90;;;;;;5096986;28;20050;-72
2022/09/18 07:14:08;;;;;;;5.40;0.77;;;12.70;99.90;;;;;;5097421;28;20071;-73
2022/09/18 07:16:34;;;;;;;10.18;0.85;;;12.70;99.90;;;;;;5097634;28;20456;-74
2022/09/18 07:19:03;;;;;;;5.57;0.82;;;12.80;99.90;;;;;;5099713;28;20097;-76
2022/09/18 07:21:29;;;;;;;7.35;0.93;;;12.90;99.90;;;;;;5098733;28;20047;-74
2022/09/18 07:23:55;;;;;;;7.93;1.05;;;13.00;99.90;;;;;;5096139;28;20039;-74
2022/09/18 07:26:22;;;;;;;8.27;1.27;;;13.20;99.90;;;;;;5097297;28;20095;-75
2022/09/18 07:28:48;;;;;;;6.10;1.13;;;13.30;99.90;;;;;;5096988;28;20273;-74
2022/09/18 07:31:13;;;;;;;6.25;1.13;;;13.30;99.90;;;;;;5097208;28;20178;-75
2022/09/18 07:33:39;;;;;;;5.35;1.10;;;13.20;99.90;;;;;;5130033;27;20310;-74
2022/09/18 07:36:05;;;;;;;6.07;0.70;;;13.10;99.90;;;;;;5096820;28;20036;-74
2022/09/18 07:38:33;;;;;;;8.05;0.70;;;12.90;99.90;;;;;;5096893;28;20032;-74
2022/09/18 07:41:02;;;;;;;11.45;0.80;;;12.70;99.90;;;;;;5095400;28;20052;-72
2022/09/18 07:43:28;;;;;;;9.02;1.15;;;12.70;99.90;;;;;;5096881;28;20063;-73
2022/09/18 07:45:54;;;;;;;12.05;1.15;;;12.50;99.90;;;;;;5096896;28;20044;-73
2022/09/18 07:48:20;;;;;;;10.88;1.25;;;12.70;99.90;;;;;;5095766;28;20093;-73
2022/09/18 07:50:45;;;;;;;7.07;1.00;;;12.60;99.90;;;;;;5095619;28;20341;-73
2022/09/18 07:53:11;;;;;;;13.32;1.10;;;12.60;99.90;;;;;;5096005;28;20106;-73
2022/09/18 07:55:37;;;;;;;12.80;1.80;;;12.40;99.90;;;;;;5129877;27;20046;-73
2022/09/18 07:58:05;;;;;;;9.75;1.45;;;12.20;99.90;;;;;;5095537;28;20032;-73
2022/09/18 08:00:33;;;;;;;11.68;1.55;;;12.10;99.90;;;;;;5078689;28;20050;-73
2022/09/18 08:03:11;;;;;;;16.40;1.35;;;12.10;99.90;;;;;;5096829;28;20040;-73
2022/09/18 08:05:38;;;;;;;21.38;1.52;;;12.10;99.90;;;;;;5129508;27;20048;-73
2022/09/18 08:08:05;;;;;;;10.00;1.17;;;12.10;99.90;;;;;;5095733;28;20044;-73
2022/09/18 08:10:32;;;;;;;14.35;1.30;;;12.20;99.90;;;;;;5096681;28;20044;-73
2022/09/18 08:12:58;;;;;;;10.40;1.05;;;12.10;99.90;;;;;;5096074;28;20119;-74
2022/09/18 08:15:24;;;;;;;11.50;1.52;;;12.10;99.90;;;;;;5096583;28;20170;-74
2022/09/18 08:17:49;;;;;;;10.40;1.00;;;12.10;99.90;;;;;;5096379;28;20043;-73
2022/09/18 08:20:15;;;;;;;14.02;1.35;;;12.10;99.90;;;;;;5095563;28;20048;-73
2022/09/18 08:22:41;;;;;;;12.63;1.10;;;12.10;99.90;;;;;;5096798;28;20353;-72
2022/09/18 08:25:08;;;;;;;9.45;1.23;;;12.10;99.90;;;;;;5096327;28;20047;-72
2022/09/18 08:27:40;;;;;;;7.28;0.98;;;12.20;99.90;;;;;;5098914;28;20036;-73
2022/09/18 08:30:08;;;;;;;7.55;1.88;;;12.10;99.90;;;;;;5099257;28;20040;-73
2022/09/18 08:32:34;;;;;;;9.82;1.42;;;12.20;99.90;;;;;;5099502;28;20046;-72
2022/09/18 08:35:00;;;;;;;18.45;2.05;;;12.30;99.90;;;;;;5100574;28;20032;-73
2022/09/18 08:37:27;;;;;;;8.90;1.40;;;12.30;99.90;;;;;;5099524;28;20044;-73
2022/09/18 08:39:53;;;;;;;10.93;1.35;;;12.20;99.90;;;;;;5100574;28;20078;-72
2022/09/18 08:42:43;;;;;;;12.48;1.70;;;12.20;99.90;;;;;;5099468;28;20425;-73
2022/09/18 08:45:14;;;;;;;11.93;1.33;;;12.30;99.90;;;;;;5100189;28;20060;-73
2022/09/18 08:47:45;;;;;;;8.65;1.10;;;12.40;99.90;;;;;;5100059;28;20436;-73
2022/09/18 08:50:30;;;;;;;11.90;1.27;;;12.60;99.90;;;;;;5100131;28;20410;-74
2022/09/18 08:53:19;;;;;;;13.23;1.38;;;12.70;99.90;;;;;;5100192;28;20036;-73
2022/09/18 08:55:47;;;;;;;10.88;1.27;;;12.70;99.90;;;;;;5099889;28;20448;-73
2022/09/18 08:58:29;;;;;;;10.70;1.25;;;12.70;99.90;;;;;;5100276;28;20058;-73
2022/09/18 09:01:05;;;;;;;6.28;0.93;;;12.80;99.90;;;;;;5099165;28;20036;-73
2022/09/18 09:03:40;;;;;;;6.95;0.80;;;12.70;99.90;;;;;;5099975;28;20093;-71
2022/09/18 09:06:32;;;;;;;8.57;1.08;;;12.70;99.90;;;;;;5098786;28;20425;-71
2022/09/18 09:09:03;;;;;;;9.57;1.00;;;12.70;99.90;;;;;;5099722;28;20062;-72
2022/09/18 09:11:49;;;;;;;6.90;0.68;;;12.70;99.90;;;;;;5099658;28;20048;-74
2022/09/18 09:15:07;;;;;;;6.72;1.00;;;12.70;99.90;;;;;;5099076;28;20039;-73
2022/09/18 09:17:46;;;;;;;11.20;1.38;;;12.80;99.90;;;;;;5060174;28;20048;-73
2022/09/18 09:20:22;;;;;;;8.88;0.93;;;12.70;99.90;;;;;;5098515;28;20128;-74
2022/09/18 09:23:02;;;;;;;7.85;0.90;;;12.50;99.90;;;;;;5099461;28;20048;-75
2022/09/18 09:26:01;;;;;;;11.77;1.10;;;12.30;99.90;;;;;;5099530;28;20337;-75
2022/09/18 09:28:58;;;;;;;15.02;3.38;;;12.30;99.90;;;;;;5098442;28;20138;-74
2022/09/18 09:31:39;;;;;;;14.18;1.88;;;12.10;99.90;;;;;;5099372;28;20044;-75
2022/09/18 09:34:17;;;;;;;11.40;1.42;;;12.00;99.90;;;;;;5099155;28;20478;-73
2022/09/18 09:36:47;;;;;;;10.65;1.13;;;12.00;99.90;;;;;;5099388;28;20083;-72
2022/09/18 09:39:27;;;;;;;12.13;1.23;;;11.90;99.90;;;;;;5096848;28;20044;-72
2022/09/18 09:41:55;;;;;;;7.07;1.02;;;12.00;99.90;;;;;;5099064;28;20097;-71
2022/09/18 09:44:40;;;;;;;9.63;1.45;;;12.10;99.90;;;;;;5132236;27;20441;-72
2022/09/18 09:47:41;;;;;;;16.77;1.50;;;12.10;99.90;;;;;;5099098;28;20043;-73
2022/09/18 09:50:17;;;;;;;10.27;1.15;;;12.00;99.90;;;;;;5098815;28;20433;-73
2022/09/18 09:52:48;;;;;;;13.55;1.33;;;12.10;99.90;;;;;;5099004;28;20032;-72
2022/09/18 09:55:16;;;;;;;11.93;1.30;;;12.20;99.90;;;;;;5099179;28;20036;-72
2022/09/18 09:58:04;;;;;;;11.85;1.83;;;12.30;99.90;;;;;;5098822;28;20046;-72
2022/09/18 10:00:55;;;;;;;16.88;1.58;;;12.20;99.90;;;;;;5098930;28;20357;-74
2022/09/18 10:03:49;;;;;;;6.43;1.00;;;12.10;99.90;;;;;;5079133;28;20450;-73
2022/09/18 10:06:26;;;;;;;9.68;1.23;;;12.20;99.90;;;;;;5098455;28;20040;-73
2022/09/18 10:08:58;;;;;;;17.75;1.60;;;12.20;99.90;;;;;;5098207;28;20040;-73
2022/09/18 10:11:24;;;;;;;13.45;1.67;;;12.40;99.90;;;;;;5098256;28;20055;-73
2022/09/18 10:14:10;;;;;;;13.77;1.40;;;12.40;99.90;;;;;;5098663;28;20039;-72
2022/09/18 10:16:45;;;;;;;8.43;1.30;;;12.30;99.90;;;;;;5098688;28;20043;-73
2022/09/18 10:19:19;;;;;;;9.73;1.10;;;12.30;99.90;;;;;;5098455;28;20302;-72
2022/09/18 10:21:46;;;;;;;17.88;1.52;;;12.30;99.90;;;;;;5098367;28;20036;-71
2022/09/18 10:24:24;;;;;;;18.73;2.30;;;12.40;99.90;;;;;;5098262;28;20071;-72
2022/09/18 10:27:06;;;;;;;10.15;1.27;;;12.50;99.90;;;;;;5098400;28;20317;-72
2022/09/18 10:29:32;;;;;;;13.57;1.20;;;12.60;99.90;;;;;;5098138;28;20330;-72
2022/09/18 10:32:01;;;;;;;9.35;1.05;;;12.70;99.90;;;;;;5098261;28;20051;-72
2022/09/18 10:34:31;;;;;;;11.65;2.08;;;12.70;99.90;;;;;;5097221;28;20051;-72
2022/09/18 10:36:58;;;;;;;15.20;1.52;;;12.70;99.90;;;;;;5098157;28;20065;-72
2022/09/18 10:39:33;;;;;;;17.10;1.63;;;12.60;99.90;;;;;;5096915;28;20372;-72
2022/09/18 10:42:15;;;;;;;11.73;1.15;;;12.70;99.90;;;;;;5097460;28;20133;-73
2022/09/18 10:44:47;;;;;;;17.08;1.60;;;12.60;99.90;;;;;;5097703;28;20129;-72
2022/09/18 10:47:17;;;;;;;13.38;1.40;;;12.80;99.90;;;;;;5098031;28;20113;-72
2022/09/18 10:49:50;;;;;;;11.18;1.83;;;12.70;99.90;;;;;;5097234;28;20318;-73
2022/09/18 10:52:35;;;;;;;8.52;1.40;;;12.80;99.90;;;;;;5097685;28;20036;-73
2022/09/18 10:55:05;;;;;;;11.48;1.17;;;12.90;99.90;;;;;;5098893;28;20036;-81
2022/09/18 10:57:37;;;;;;;15.23;1.77;;;13.00;99.90;;;;;;5097800;28;20121;-79
2022/09/18 11:00:28;;;;;;;21.73;1.73;;;13.00;99.90;;;;;;5096689;28;20089;-72
2022/09/18 11:03:11;;;;;;;9.32;1.27;;;13.00;99.90;;;;;;5096457;28;20047;-72
2022/09/18 11:05:48;;;;;;;18.85;1.67;;;13.20;99.90;;;;;;5097826;28;20118;-72
2022/09/18 11:08:15;;;;;;;;;;;13.50;99.90;;;;;;5098312;28;20102;-72
2022/09/18 11:10:47;;;;;;;8.23;1.23;;;13.80;99.90;;;;;;5130786;27;19920;-84
2022/09/18 11:13:23;;;;;;;13.48;1.15;;;13.80;99.90;;;;;;5096837;28;20036;-71
2022/09/18 11:15:54;;;;;;;;;;;13.90;99.90;;;;;;5098129;28;20036;-74
2022/09/18 11:18:22;;;;;;;11.23;1.20;;;14.00;99.90;;;;;;5099506;28;19916;-71
2022/09/18 11:20:49;;;;;;;15.65;3.20;;;14.10;99.90;;;;;;5097218;28;20089;-71
2022/09/18 11:23:21;;;;;;;14.13;2.22;;;14.30;99.90;;;;;;5097211;28;20417;-71
2022/09/18 11:25:47;;;;;;;14.02;1.17;;;14.20;99.90;;;;;;5097056;28;20330;-71
2022/09/18 11:28:27;;;;;;;18.38;1.55;;;14.20;99.90;;;;;;5097117;28;20088;-71
2022/09/18 11:31:03;;;;;;;11.07;1.02;;;14.40;99.90;;;;;;5097072;28;20452;-71
2022/09/18 11:33:35;;;;;;;15.55;1.65;;;14.60;99.90;;;;;;5097274;28;20040;-72
2022/09/18 11:36:07;;;;;;;16.42;3.30;;;14.50;99.90;;;;;;5097224;28;20111;-71
2022/09/18 11:38:40;;;;;;;16.20;2.58;;;14.50;99.90;;;;;;5097050;28;20075;-71
2022/09/18 11:41:06;;;;;;;13.60;1.65;;;14.40;99.90;;;;;;5096843;28;20052;-71
2022/09/18 11:43:37;;;;;;;15.10;2.95;;;14.40;99.90;;;;;;5096650;28;20083;-71
2022/09/18 11:46:29;;;;;;;18.48;2.10;;;14.40;99.90;;;;;;5096965;28;20047;-71
2022/09/18 11:49:02;;;;;;;11.43;1.40;;;14.60;99.90;;;;;;5096832;28;20443;-71
2022/09/18 11:51:56;;;;;;;8.30;1.40;;;14.60;99.90;;;;;;5096784;28;20068;-71
2022/09/18 11:54:43;;;;;;;11.40;1.42;;;14.70;99.90;;;;;;5097020;28;20032;-71
2022/09/18 11:57:45;;;;;;;8.23;1.13;;;14.60;99.90;;;;;;5097218;28;20133;-71
2022/09/18 12:00:19;;;;;;;9.68;0.85;;;14.50;99.90;;;;;;5089331;28;20055;-70
2022/09/18 12:03:05;;;;;;;16.75;1.83;;;14.60;99.90;;;;;;5096355;28;20039;-71
2022/09/18 12:05:40;;;;;;;12.85;1.35;;;14.80;99.90;;;;;;5096613;28;20044;-70
2022/09/18 12:08:17;;;;;;;15.07;1.25;;;14.70;99.90;;;;;;5096425;28;20422;-70
2022/09/18 12:11:14;;;;;;;12.60;1.40;;;14.60;99.90;;;;;;5096454;28;20119;-71
2022/09/18 12:13:52;;;;;;;;;;;14.60;99.90;;;;;;5096788;28;20122;-71
2022/09/18 12:16:37;;;;;;;9.82;1.38;;;14.40;99.90;;;;;;5096554;28;19916;-72
2022/09/18 12:19:20;;;;;;;13.75;1.35;;;14.30;99.90;;;;;;5096505;28;20040;-71
2022/09/18 12:22:15;;;;;;;9.65;1.02;;;14.30;99.90;;;;;;5095334;28;20036;-71
2022/09/18 12:24:41;;;;;;;7.60;1.17;;;14.40;99.90;;;;;;5094386;28;20329;-70
2022/09/18 12:27:27;;;;;;;10.35;1.10;;;14.50;99.90;;;;;;5096312;28;20032;-69
2022/09/18 12:30:16;;;;;;;13.18;1.08;;;14.40;99.90;;;;;;5095314;28;20051;-70
2022/09/18 12:33:06;;;;;;;12.68;1.70;;;14.30;99.90;;;;;;5095589;28;20047;-70
2022/09/18 12:36:01;;;;;;;9.68;1.70;;;14.50;99.90;;;;;;5096281;28;20044;-70
2022/09/18 12:38:57;;;;;;;10.48;0.85;;;14.50;99.90;;;;;;5102580;28;20127;-70
2022/09/18 12:41:44;;;;;;;9.30;0.90;;;14.40;99.90;;;;;;5102868;28;20130;-70
2022/09/18 12:44:25;;;;;;;8.85;1.10;;;14.40;99.90;;;;;;5116218;28;20059;-71
2022/09/18 12:47:08;;;;;;;5.95;0.70;;;14.50;99.90;;;;;;5100365;28;20052;-71
2022/09/18 12:49:43;;;;;;;6.97;1.92;;;14.40;99.90;;;;;;5096132;28;20040;-71
2022/09/18 12:52:46;;;;;;;7.97;1.23;;;14.40;99.90;;;;;;5096009;28;20318;-71
2022/09/18 12:55:24;;;;;;;12.20;1.48;;;14.30;99.90;;;;;;5096179;28;20036;-71
2022/09/18 12:58:23;;;;;;;14.50;1.67;;;14.20;99.90;;;;;;5095656;28;20028;-71
2022/09/18 13:00:51;;;;;;;6.45;1.20;;;14.30;99.90;;;;;;5128917;28;20141;-71
2022/09/18 13:03:31;;;;;;;10.05;2.00;;;14.40;99.90;;;;;;5101958;28;20044;-72
2022/09/18 13:06:10;;;;;;;10.32;1.63;;;14.40;99.90;;;;;;5114846;28;20044;-70
2022/09/18 13:08:47;;;;;;;18.52;5.75;;;14.50;99.90;;;;;;5115148;28;20054;-75
2022/09/18 13:11:28;;;;;;;12.45;2.35;;;14.50;99.90;;;;;;5116053;28;20079;-72